Time;durP1;ratioP1;P1;durP2;ratioP2;P2;SDS_P1;SDS_P2;PMS_P1;PMS_P2;Temp;Humidity;BMP_temperature;BMP_pressure;BME280_temperature;BME280_humidity;BME280_pressure;Samples;Min_cycle;Max_cycle;Signal;HPM_P1;HPM_P2
2022/10/23 00:01:40;;;;;;;3.60;3.13;;;;;;;12.01;80.81;99005.59;5116416;27;39930;-86
2022/10/23 00:04:12;;;;;;;2.50;2.20;;;;;;;11.87;81.03;98988.78;5116338;27;41848;-86
2022/10/23 00:06:41;;;;;;;3.27;2.83;;;;;;;11.85;80.83;98985.41;5116098;27;42182;-87
2022/10/23 00:09:11;;;;;;;3.17;2.83;;;;;;;11.93;81.64;99002.59;5116165;27;41407;-87
2022/10/23 00:11:40;;;;;;;3.97;2.80;;;;;;;11.90;81.52;99005.47;5133659;27;40737;-86
2022/10/23 00:14:07;;;;;;;2.90;2.60;;;;;;;11.84;81.46;98991.66;5116103;27;40791;-86
2022/10/23 00:16:36;;;;;;;3.07;2.80;;;;;;;11.77;81.54;98979.72;5115909;27;42106;-85
2022/10/23 00:19:04;;;;;;;4.80;2.97;;;;;;;11.84;81.61;98999.63;5115935;27;43365;-87
2022/10/23 00:21:33;;;;;;;4.37;3.20;;;;;;;11.74;81.58;98982.56;5116388;27;38869;-86
2022/10/23 00:24:01;;;;;;;2.77;2.50;;;;;;;11.72;81.65;98970.34;5132554;27;41897;-87
2022/10/23 00:26:30;;;;;;;3.07;2.50;;;;;;;11.71;81.63;98977.47;5116145;27;43975;-86
2022/10/23 00:28:57;;;;;;;3.23;2.80;;;;;;;11.79;81.57;98988.44;5115741;27;43820;-87
2022/10/23 00:31:26;;;;;;;2.93;2.60;;;;;;;11.69;81.49;98971.38;5115902;27;40033;-87
2022/10/23 00:33:54;;;;;;;3.20;2.53;;;;;;;11.67;81.53;98977.75;5115453;27;43051;-86
2022/10/23 00:36:22;;;;;;;2.90;2.50;;;;;;;11.48;81.67;98946.28;5115728;27;41716;-87
2022/10/23 00:38:51;;;;;;;3.40;2.60;;;;;;;11.52;81.50;98961.88;5113571;27;44444;-86
2022/10/23 00:41:22;;;;;;;3.10;2.53;;;;;;;11.57;81.41;98971.34;5105916;28;39524;-86
2022/10/23 00:44:04;;;;;;;2.80;2.60;;;;;;;11.64;81.23;98984.09;5094809;28;43032;-86
2022/10/23 00:46:32;;;;;;;3.80;2.47;;;;;;;11.49;81.32;98964.75;5095310;28;43258;-87
2022/10/23 00:49:00;;;;;;;3.53;2.70;;;;;;;11.37;81.12;98948.75;5095188;28;43048;-86
2022/10/23 00:51:34;;;;;;;3.27;2.30;;;;;;;11.44;81.26;98976.56;5095379;28;41501;-86
2022/10/23 00:54:04;;;;;;;3.17;2.33;;;;;;;11.49;81.12;98985.97;5095283;28;41021;-86
2022/10/23 00:56:36;;;;;;;3.27;2.70;;;;;;;11.46;81.32;98985.28;5095077;28;41465;-87
2022/10/23 00:59:04;;;;;;;3.63;2.60;;;;;;;11.32;81.20;98961.44;5095016;28;42642;-86
2022/10/23 01:01:32;;;;;;;3.30;2.90;;;;;;;11.39;81.39;98979.50;5095065;28;40138;-86
2022/10/23 01:03:59;;;;;;;2.73;2.53;;;;;;;11.28;81.40;98960.78;5095068;28;40929;-86
2022/10/23 01:06:35;;;;;;;3.53;2.90;;;;;;;11.35;81.30;98982.47;5095299;28;42872;-86
2022/10/23 01:09:12;;;;;;;3.80;2.90;;;;;;;11.18;81.26;98956.16;5112024;27;42098;-87
2022/10/23 01:11:48;;;;;;;2.87;2.47;;;;;;;11.23;81.05;98959.41;5095208;28;42090;-86
2022/10/23 01:14:23;;;;;;;3.97;2.70;;;;;;;11.24;81.18;98971.72;5095203;28;40770;-87
2022/10/23 01:17:00;;;;;;;4.77;2.60;;;;;;;11.05;81.25;98942.84;5095058;28;41788;-86
2022/10/23 01:19:44;;;;;;;4.17;3.00;;;;;;;11.14;81.21;98971.41;5095003;28;41203;-86
2022/10/23 01:22:27;;;;;;;2.37;2.17;;;;;;;11.15;81.08;98960.72;5094855;28;38887;-87
2022/10/23 01:25:01;;;;;;;2.50;2.30;;;;;;;11.21;81.36;98975.41;5095169;28;41735;-86
2022/10/23 01:27:34;;;;;;;4.50;3.00;;;;;;;11.20;81.20;98975.50;5094835;28;42136;-86
2022/10/23 01:30:06;;;;;;;3.30;3.00;;;;;;;11.20;81.84;98962.22;5094997;28;41227;-86
2022/10/23 01:32:44;;;;;;;4.10;3.20;;;;;;;11.11;81.64;98950.41;5109551;28;39978;-86
2022/10/23 01:35:16;;;;;;;3.97;3.00;;;;;;;11.20;82.00;98959.59;5109674;28;41479;-86
2022/10/23 01:37:53;;;;;;;5.77;3.50;;;;;;;11.21;82.06;98961.28;5097978;28;41784;-85
2022/10/23 01:40:24;;;;;;;3.20;2.90;;;;;;;10.82;81.99;98907.19;5098590;28;40787;-86
2022/10/23 01:42:59;;;;;;;2.83;2.43;;;;;;;11.16;81.87;98957.13;5098105;28;39806;-86
2022/10/23 01:45:34;;;;;;;4.40;2.90;;;;;;;11.09;81.84;98937.25;5112482;28;41974;-86
2022/10/23 01:48:04;;;;;;;4.33;2.90;;;;;;;10.87;81.61;98902.47;5098128;28;41737;-86
2022/10/23 01:50:34;;;;;;;2.70;2.50;;;;;;;11.12;81.51;98933.56;5098035;28;43044;-87
2022/10/23 01:53:05;;;;;;;3.17;2.43;;;;;;;11.21;81.36;98942.72;5097546;28;40318;-86
2022/10/23 01:55:34;;;;;;;2.80;2.50;;;;;;;11.14;81.57;98923.69;5097971;28;41892;-86
2022/10/23 01:58:16;;;;;;;3.50;2.57;;;;;;;11.21;81.74;98942.72;5097886;28;43304;-85
2022/10/23 02:00:47;;;;;;;3.07;2.50;;;;;;;11.19;81.57;98955.22;5097935;28;42234;-87
2022/10/23 02:03:17;;;;;;;3.53;2.60;;;;;;;11.06;81.26;98933.94;5098019;28;39485;-87
2022/10/23 02:05:45;;;;;;;3.40;2.20;;;;;;;11.08;81.38;98927.59;5115441;28;41232;-86
2022/10/23 02:08:13;;;;;;;2.50;2.10;;;;;;;11.03;81.57;98928.84;5097669;28;41829;-85
2022/10/23 02:10:49;;;;;;;2.97;2.30;;;;;;;11.10;81.64;98952.22;5098066;28;43645;-87
2022/10/23 02:13:24;;;;;;;3.03;2.40;;;;;;;11.08;81.42;98954.09;5097525;28;40380;-86
2022/10/23 02:16:01;;;;;;;2.30;2.10;;;;;;;11.03;81.49;98940.28;5111751;28;42139;-86
2022/10/23 02:18:38;;;;;;;2.30;2.10;;;;;;;11.01;81.77;98942.19;5097383;28;43290;-86
2022/10/23 02:21:10;;;;;;;2.20;1.93;;;;;;;10.85;82.05;98917.59;5097830;28;40866;-86
2022/10/23 02:23:43;;;;;;;2.70;2.33;;;;;;;10.86;82.17;98932.56;5097530;28;40191;-85
2022/10/23 02:26:18;;;;;;;2.70;2.50;;;;;;;10.93;82.53;98943.59;5097814;28;41711;-85
2022/10/23 02:28:56;;;;;;;3.77;2.83;;;;;;;10.89;82.66;98937.66;5096969;28;43140;-85
2022/10/23 02:31:24;;;;;;;3.00;2.60;;;;;;;10.67;82.64;98911.66;5097304;28;42388;-87
2022/10/23 02:33:52;;;;;;;2.60;2.37;;;;;;;10.77;82.67;98943.69;5114348;28;39966;-85
2022/10/23 02:36:20;;;;;;;2.57;2.33;;;;;;;10.79;82.52;98947.13;5097274;28;41952;-85
2022/10/23 02:38:48;;;;;;;3.93;2.30;;;;;;;10.67;82.67;98924.03;5097288;28;43238;-86
2022/10/23 02:41:38;;;;;;;3.77;2.10;;;;;;;10.76;82.72;98936.69;5114468;28;41950;-86
2022/10/23 02:44:26;;;;;;;2.83;2.63;;;;;;;10.37;83.27;98861.44;5097070;28;41224;-85
2022/10/23 02:47:06;;;;;;;3.80;3.10;;;;;;;10.69;83.27;98906.25;5096565;28;41891;-86
2022/10/23 02:49:40;;;;;;;3.17;2.87;;;;;;;10.71;83.96;98907.00;5097363;28;43293;-86
2022/10/23 02:52:18;;;;;;;3.57;2.90;;;;;;;10.67;84.13;98900.19;5096388;28;43330;-86
2022/10/23 02:55:08;;;;;;;4.97;3.53;;;;;;;10.58;83.92;98895.47;5111016;28;40082;-86
2022/10/23 02:57:54;;;;;;;2.97;2.70;;;;;;;10.39;83.53;98872.78;5096713;28;42143;-86
2022/10/23 03:00:25;;;;;;;4.63;2.60;;;;;;;10.59;83.42;98907.78;5097256;28;43568;-85
2022/10/23 03:02:57;;;;;;;3.30;2.97;;;;;;;10.50;83.30;98908.34;5096420;28;41010;-85
2022/10/23 03:05:33;;;;;;;3.80;2.63;;;;;;;10.48;83.29;98902.28;5097744;28;39094;-84
2022/10/23 03:08:03;;;;;;;3.00;2.67;;;;;;;10.48;83.33;98910.25;5096712;28;41076;-85
2022/10/23 03:10:31;;;;;;;2.77;2.50;;;;;;;10.52;83.20;98906.44;5096704;28;41437;-86
2022/10/23 03:12:59;;;;;;;2.70;2.47;;;;;;;10.49;82.97;98896.06;5113796;28;43069;-86
2022/10/23 03:15:30;;;;;;;2.40;2.20;;;;;;;10.32;83.04;98874.09;5096991;28;39294;-86
2022/10/23 03:17:57;;;;;;;3.27;2.57;;;;;;;10.33;82.92;98878.47;5096655;28;40374;-86
2022/10/23 03:20:25;;;;;;;4.57;2.70;;;;;;;10.22;82.79;98861.53;5114027;28;43608;-84
2022/10/23 03:22:53;;;;;;;2.73;2.40;;;;;;;10.31;83.07;98883.00;5114633;28;42110;-85
2022/10/23 03:25:20;;;;;;;3.10;2.40;;;;;;;10.26;82.84;98879.75;5113830;28;39200;-85
2022/10/23 03:27:48;;;;;;;2.63;2.27;;;;;;;10.24;83.03;98881.66;5096138;28;41871;-86
2022/10/23 03:30:17;;;;;;;2.63;2.43;;;;;;;10.33;83.04;98891.69;5096568;28;41834;-85
2022/10/23 03:32:51;;;;;;;3.30;2.63;;;;;;;10.34;82.81;98893.41;5096070;28;40877;-86
2022/10/23 03:35:19;;;;;;;2.73;2.20;;;;;;;10.25;83.19;98872.78;5113737;28;39291;-86
2022/10/23 03:37:47;;;;;;;2.80;2.60;;;;;;;10.29;83.07;98874.28;5096025;28;41759;-86
2022/10/23 03:40:15;;;;;;;2.40;2.20;;;;;;;10.24;83.07;98871.09;5096198;28;43935;-85
2022/10/23 03:42:42;;;;;;;3.07;2.10;;;;;;;10.33;83.24;98881.09;5114243;28;43004;-84
2022/10/23 03:45:13;;;;;;;2.37;2.17;;;;;;;10.31;83.24;98880.34;5096628;28;39965;-84
2022/10/23 03:47:40;;;;;;;2.27;2.07;;;;;;;10.33;83.06;98885.53;5112960;28;41833;-85
2022/10/23 03:50:12;;;;;;;2.43;2.23;;;;;;;10.42;83.14;98896.41;5096463;28;44398;-85
2022/10/23 03:52:40;;;;;;;3.00;2.53;;;;;;;10.45;82.77;98895.38;5095573;28;40800;-84
2022/10/23 03:55:09;;;;;;;2.60;2.20;;;;;;;10.35;83.52;98879.22;5113641;28;40707;-86
2022/10/23 03:57:38;;;;;;;3.60;2.40;;;;;;;10.46;83.32;98890.94;5112228;27;40862;-87
2022/10/23 04:00:08;;;;;;;2.77;2.20;;;;;;;10.46;83.51;98898.88;5113194;28;43558;-85
2022/10/23 04:02:43;;;;;;;3.23;2.47;;;;;;;10.43;83.46;98898.13;5112870;28;43627;-85
2022/10/23 04:05:13;;;;;;;3.53;2.00;;;;;;;10.42;83.48;98885.81;5113461;28;39972;-84
2022/10/23 04:07:50;;;;;;;2.70;1.77;;;;;;;10.31;83.25;98861.81;5096009;28;42618;-87
2022/10/23 04:10:18;;;;;;;2.97;1.87;;;;;;;10.31;83.15;98861.81;5114228;28;43005;-85
2022/10/23 04:12:46;;;;;;;2.37;2.10;;;;;;;10.00;83.10;98812.53;5113043;28;43133;-86
2022/10/23 04:15:13;;;;;;;3.37;2.50;;;;;;;10.17;83.17;98853.81;5096251;28;39068;-86
2022/10/23 04:17:44;;;;;;;2.30;2.10;;;;;;;10.15;83.44;98861.00;5112841;28;43313;-84
2022/10/23 04:20:15;;;;;;;2.50;2.30;;;;;;;10.25;83.44;98878.09;5112944;28;43802;-86
2022/10/23 04:22:43;;;;;;;2.10;1.90;;;;;;;10.33;83.47;98891.69;5112333;28;42218;-86
2022/10/23 04:25:11;;;;;;;2.23;2.03;;;;;;;10.25;83.14;98886.03;5113112;28;40082;-84
2022/10/23 04:27:39;;;;;;;2.40;1.77;;;;;;;10.31;83.46;98888.28;5095232;28;40658;-85
2022/10/23 08:15:41;;;;;;;4.57;3.10;;;;;;;13.01;100.00;98812.63;5183731;27;20953;-85
2022/10/23 08:18:23;;;;;;;3.40;3.03;;;;;;;13.76;98.54;98807.06;5136013;27;39908;-86
2022/10/23 08:20:51;;;;;;;3.43;3.13;;;;;;;14.63;93.34;98809.97;5133420;27;41979;-85
2022/10/23 08:23:20;;;;;;;3.13;2.83;;;;;;;15.41;87.88;98827.63;5132641;27;41340;-85
2022/10/23 08:25:49;;;;;;;2.47;2.27;;;;;;;15.97;84.74;98820.22;5133157;27;40808;-86
2022/10/23 08:28:18;;;;;;;2.30;2.10;;;;;;;16.52;81.49;98827.00;5133184;27;38837;-86
2022/10/23 08:30:56;;;;;;;2.97;2.77;;;;;;;16.61;78.99;98798.59;5133179;27;42264;-86
2022/10/23 08:33:24;;;;;;;4.57;2.90;;;;;;;16.91;77.80;98827.19;5132508;27;41618;-86
2022/10/23 08:35:51;;;;;;;2.50;2.30;;;;;;;17.09;76.89;98838.03;5132990;27;40971;-86
2022/10/23 08:38:29;;;;;;;2.67;2.27;;;;;;;17.19;75.63;98844.25;5132961;27;39944;-87
2022/10/23 08:40:57;;;;;;;2.80;2.60;;;;;;;17.28;74.75;98840.78;5132984;27;40886;-86
2022/10/23 08:43:51;;;;;;;3.30;2.77;;;;;;;17.23;73.58;98829.63;5142579;27;41738;-87
2022/10/23 08:46:37;;;;;;;3.07;2.77;;;;;;;17.22;73.84;98814.56;5129424;27;41440;-86
2022/10/23 08:49:36;;;;;;;6.40;3.00;;;;;;;17.46;73.55;98833.75;5146349;27;38851;-86
2022/10/23 08:52:14;;;;;;;3.73;2.10;;;;;;;17.58;72.97;98827.25;5129588;27;40858;-85
2022/10/23 08:54:53;;;;;;;2.47;2.20;;;;;;;17.75;72.75;98838.31;5148868;27;43729;-85
2022/10/23 08:57:24;;;;;;;2.00;1.80;;;;;;;18.02;72.21;98841.09;5144234;27;42126;-87
2022/10/23 08:59:57;;;;;;;2.57;2.33;;;;;;;18.16;71.41;98823.75;5112211;27;39162;-87
2022/10/23 09:02:28;;;;;;;2.30;2.10;;;;;;;18.31;71.22;98820.44;5111939;27;40683;-88
2022/10/23 09:04:58;;;;;;;1.90;1.80;;;;;;;18.66;71.04;98829.69;5155734;27;41546;-87
2022/10/23 09:07:38;;;;;;;2.87;2.27;;;;;;;18.80;69.81;98815.75;5127483;27;41449;-87
2022/10/23 09:10:25;;;;;;;3.20;2.00;;;;;;;18.98;69.24;98807.75;5131357;27;39118;-86
2022/10/23 09:12:53;;;;;;;2.23;2.03;;;;;;;19.25;68.86;98810.44;5145700;27;42617;-86
2022/10/23 09:15:27;;;;;;;2.33;2.13;;;;;;;19.60;67.57;98831.13;5130652;27;41715;-86
2022/10/23 09:18:03;;;;;;;3.83;2.67;;;;;;;19.87;65.37;98834.72;5131358;27;41084;-86
2022/10/23 09:20:34;;;;;;;2.10;2.00;;;;;;;20.07;65.59;98807.47;5146787;27;39283;-87
2022/10/23 09:23:04;;;;;;;5.00;2.27;;;;;;;20.37;64.95;98803.53;5129881;27;41132;-87
2022/10/23 09:25:37;;;;;;;2.10;1.90;;;;;;;20.59;61.88;98829.03;5125439;27;42685;-86
2022/10/23 09:28:06;;;;;;;1.60;1.50;;;;;;;20.68;61.23;98825.38;5114922;27;41296;-86
2022/10/23 09:30:36;;;;;;;2.50;1.90;;;;;;;20.78;61.33;98818.00;5117275;27;40123;-87
2022/10/23 09:33:16;;;;;;;2.10;1.60;;;;;;;21.07;61.64;98811.41;5117434;27;42019;-87
2022/10/23 09:35:56;;;;;;;2.70;1.87;;;;;;;21.15;59.80;98814.97;5117079;27;41934;-86
2022/10/23 09:38:28;;;;;;;1.83;1.40;;;;;;;21.29;60.18;98812.66;5116994;27;40978;-87
2022/10/23 09:40:58;;;;;;;3.13;2.03;;;;;;;21.29;59.90;98796.50;5117072;27;40623;-87
2022/10/23 09:43:29;;;;;;;1.83;1.70;;;;;;;21.59;59.86;98789.66;5117249;27;43437;-86
2022/10/23 09:46:42;;;;;;;2.93;1.93;;;;;;;22.34;56.93;98812.75;5133433;27;42104;-84
2022/10/23 09:49:18;;;;;;;2.53;1.60;;;;;;;22.95;54.74;98805.84;5113151;27;40938;-85
2022/10/23 09:51:56;;;;;;;3.47;1.70;;;;;;;23.56;53.79;98815.81;5118078;27;39152;-86
2022/10/23 09:54:24;;;;;;;1.77;1.40;;;;;;;23.68;52.11;98775.69;5103294;28;41905;-87
2022/10/23 09:56:54;;;;;;;3.90;1.57;;;;;;;24.50;50.81;98819.94;5096695;28;41976;-84
2022/10/23 09:59:25;;;;;;;1.63;1.53;;;;;;;25.08;48.97;98818.28;5096689;28;41475;-88
2022/10/23 10:01:54;;;;;;;2.23;1.97;;;;;;;25.92;46.67;98838.44;5097279;28;38919;-86
2022/10/23 10:04:59;;;;;;;3.97;1.60;;;;;;;26.36;46.71;98831.94;5096866;28;40749;-87
2022/10/23 10:07:29;;;;;;;1.80;1.47;;;;;;;26.44;46.50;98831.81;5097401;28;42947;-87
2022/10/23 10:09:58;;;;;;;1.73;1.57;;;;;;;26.61;45.51;98835.91;5096669;28;41142;-87
2022/10/23 10:12:48;;;;;;;2.23;1.60;;;;;;;26.65;44.97;98829.03;5096519;28;39165;-87
2022/10/23 10:15:23;;;;;;;1.43;1.30;;;;;;;26.49;45.08;98826.63;5095963;28;40662;-86
2022/10/23 10:18:03;;;;;;;2.07;1.70;;;;;;;26.29;45.10;98822.94;5096783;28;43227;-88
2022/10/23 10:21:02;;;;;;;2.23;1.70;;;;;;;26.75;45.25;98828.66;5096575;28;41128;-86
2022/10/23 10:23:38;;;;;;;2.80;1.50;;;;;;;28.08;43.67;98844.47;5088335;28;39918;-86
2022/10/23 10:26:15;;;;;;;1.90;1.70;;;;;;;30.14;38.12;98874.59;5097144;28;40810;-87
2022/10/23 10:28:54;;;;;;;1.70;1.60;;;;;;;31.70;35.26;98869.69;5096470;28;42588;-87
2022/10/23 10:31:32;;;;;;;3.37;1.50;;;;;;;32.62;33.88;98888.56;5096577;28;41275;-87
2022/10/23 10:34:08;;;;;;;1.80;1.70;;;;;;;33.61;33.59;98857.34;5113925;28;38931;-87
2022/10/23 10:36:47;;;;;;;1.70;1.40;;;;;;;33.66;31.74;98868.41;5096311;28;40781;-86
2022/10/23 10:39:25;;;;;;;1.90;1.40;;;;;;;32.51;33.44;98856.47;5095846;28;41895;-87
2022/10/23 10:42:04;;;;;;;2.07;1.40;;;;;;;31.80;34.70;98847.22;5096560;28;41035;-86
2022/10/23 10:44:46;;;;;;;1.60;1.50;;;;;;;33.07;33.83;98851.22;5113503;28;38800;-87
2022/10/23 10:47:20;;;;;;;1.65;1.30;;;;;;;35.29;30.56;98867.38;5096466;28;42045;-87
2022/10/23 10:49:57;;;;;;;1.60;1.50;;;;;;;36.90;28.97;98879.50;5095795;28;41997;-87
2022/10/23 10:52:51;;;;;;;1.30;1.20;;;;;;;37.16;28.50;98875.84;5096183;28;40844;-87
2022/10/23 10:55:24;;;;;;;1.65;1.05;;;;;;;37.04;29.24;98869.66;5096558;28;38527;-87
2022/10/23 10:57:57;;;;;;;2.72;1.25;;;;;;;36.79;29.20;98853.78;5096614;28;41827;-87
2022/10/23 11:00:29;;;;;;;2.22;1.35;;;;;;;36.58;26.86;98872.09;5113199;28;42742;-87
2022/10/23 11:03:01;;;;;;;2.13;1.30;;;;;;;36.39;28.48;98834.94;5095881;28;41657;-87
2022/10/23 11:05:32;;;;;;;1.77;1.55;;;;;;;35.87;28.97;98832.78;5096125;28;39582;-87
2022/10/23 11:08:07;;;;;;;5.32;1.60;;;;;;;34.81;30.66;98796.50;5096180;28;41101;-88
2022/10/23 11:10:38;;;;;;;1.98;1.33;;;;;;;34.34;30.64;98800.72;5095939;28;43484;-86
2022/10/23 11:13:06;;;;;;;1.00;1.00;;;;;;;34.09;30.83;98804.66;5095841;28;41754;-86
2022/10/23 11:15:40;;;;;;;1.30;1.20;;;;;;;33.85;30.92;98803.97;5112879;28;40149;-86
2022/10/23 11:18:19;;;;;;;1.67;1.40;;;;;;;33.79;31.75;98810.44;5112758;28;41172;-87
2022/10/23 11:21:01;;;;;;;3.13;1.20;;;;;;;33.82;31.02;98789.91;5095747;28;42036;-86
2022/10/23 11:23:54;;;;;;;1.63;1.10;;;;;;;33.73;30.35;98805.09;5095686;28;43260;-87
2022/10/23 11:26:45;;;;;;;1.60;1.40;;;;;;;32.58;32.30;98763.94;5096097;28;38807;-86
2022/10/23 11:29:39;;;;;;;1.40;1.30;;;;;;;31.39;33.37;98765.84;5095588;28;40797;-86
2022/10/23 11:32:29;;;;;;;2.30;1.03;;;;;;;30.18;35.33;98752.03;5112692;28;42021;-85
2022/10/23 11:35:20;;;;;;;2.53;1.40;;;;;;;29.22;36.40;98735.88;5095072;28;40794;-86
2022/10/23 11:37:59;;;;;;;1.13;1.00;;;;;;;28.53;38.06;98720.22;5095358;28;38834;-86
2022/10/23 11:40:29;;;;;;;4.03;1.23;;;;;;;28.12;39.15;98731.38;5112392;28;40742;-86
2022/10/23 11:42:57;;;;;;;1.30;1.20;;;;;;;27.65;39.83;98716.09;5112423;28;42722;-86
2022/10/23 11:45:34;;;;;;;1.40;1.30;;;;;;;27.22;40.17;98672.91;5095071;28;41069;-85
2022/10/23 11:48:03;;;;;;;2.23;1.10;;;;;;;27.16;40.40;98673.75;5095337;27;39131;-86
2022/10/23 11:50:34;;;;;;;1.30;1.20;;;;;;;26.76;41.00;98641.00;5094966;28;40716;-85
2022/10/23 11:53:09;;;;;;;2.43;1.20;;;;;;;26.69;41.93;98672.75;5095403;28;42043;-86
2022/10/23 11:56:01;;;;;;;1.27;0.97;;;;;;;25.97;42.14;98583.59;5078507;28;41484;-85
2022/10/23 11:58:45;;;;;;;1.07;1.07;;;;;;;25.97;43.55;98634.31;5096479;28;39752;-87
2022/10/23 12:01:26;;;;;;;1.53;1.30;;;;;;;25.69;43.87;98631.63;5112599;28;40822;-86
2022/10/23 12:03:59;;;;;;;1.37;0.97;;;;;;;25.54;43.92;98655.25;5095394;28;41704;-85
2022/10/23 12:06:32;;;;;;;1.20;0.80;;;;;;;25.80;43.96;98650.09;5095048;28;42619;-86
2022/10/23 12:09:04;;;;;;;2.17;1.30;;;;;;;25.87;43.53;98604.81;5095201;28;39798;-85
2022/10/23 12:11:47;;;;;;;1.37;1.27;;;;;;;26.71;43.57;98677.94;5094710;28;40527;-85
2022/10/23 12:14:33;;;;;;;2.27;1.30;;;;;;;27.15;42.15;98640.28;5111790;28;42598;-86
2022/10/23 12:17:03;;;;;;;3.17;1.60;;;;;;;28.54;40.34;98638.28;5094218;28;41409;-86
2022/10/23 12:19:46;;;;;;;3.23;1.50;;;;;;;30.66;36.71;98667.47;5095064;28;38592;-85
2022/10/23 12:22:15;;;;;;;1.57;1.40;;;;;;;32.19;33.84;98684.13;5094702;28;40606;-85
2022/10/23 12:24:55;;;;;;;1.67;1.57;;;;;;;31.41;34.07;98659.69;5111523;28;42934;-86
2022/10/23 12:27:33;;;;;;;1.67;1.57;;;;;;;30.30;35.95;98666.38;5095089;28;41825;-85
2022/10/23 12:30:18;;;;;;;1.50;1.40;;;;;;;29.15;36.93;98659.56;5112089;28;39562;-86
2022/10/23 12:33:09;;;;;;;2.90;1.10;;;;;;;28.37;39.11;98623.44;5094924;28;40898;-84
2022/10/23 12:36:06;;;;;;;1.50;1.40;;;;;;;28.01;39.79;98634.84;5095140;28;42066;-86
2022/10/23 12:38:34;;;;;;;2.37;1.00;;;;;;;27.71;40.39;98644.50;5095459;28;41310;-86
2022/10/23 12:41:10;;;;;;;1.30;1.10;;;;;;;27.31;40.52;98620.00;5094960;28;39130;-85
2022/10/23 12:43:42;;;;;;;1.37;1.17;;;;;;;27.02;41.81;98606.78;5095123;28;40738;-87
2022/10/23 12:46:27;;;;;;;1.43;1.33;;;;;;;26.60;42.12;98580.75;5094824;28;43288;-85
2022/10/23 12:48:56;;;;;;;1.70;1.60;;;;;;;26.61;42.94;98610.41;5094624;28;41464;-85
2022/10/23 12:51:27;;;;;;;1.53;1.40;;;;;;;26.36;43.12;98601.13;5094408;28;39225;-86
2022/10/23 12:53:54;;;;;;;1.57;1.10;;;;;;;26.18;43.73;98584.53;5094927;28;40961;-85
2022/10/23 12:56:24;;;;;;;1.30;1.20;;;;;;;25.92;44.12;98567.09;5094442;28;42028;-85
2022/10/23 12:58:56;;;;;;;1.23;1.10;;;;;;;25.69;44.17;98580.94;5094845;28;41690;-85
2022/10/23 13:01:26;;;;;;;1.37;1.27;;;;;;;25.51;45.64;98574.31;5096365;28;38805;-86
2022/10/23 13:03:59;;;;;;;1.37;1.27;;;;;;;25.30;46.02;98567.91;5098679;28;40919;-86
2022/10/23 13:06:27;;;;;;;1.40;1.30;;;;;;;24.97;46.39;98539.69;5098204;28;41300;-85
2022/10/23 13:08:56;;;;;;;1.33;1.20;;;;;;;24.84;47.27;98550.38;5098273;28;42302;-85
2022/10/23 13:11:52;;;;;;;1.37;1.20;;;;;;;24.48;47.54;98539.59;5091313;28;39394;-85
2022/10/23 13:14:33;;;;;;;1.10;0.97;;;;;;;24.32;48.46;98544.22;5097251;28;41670;-85
2022/10/23 13:17:03;;;;;;;1.60;1.50;;;;;;;24.00;48.62;98523.81;5098124;28;41637;-85
2022/10/23 13:19:31;;;;;;;1.53;1.43;;;;;;;23.91;49.07;98521.41;5097590;28;42385;-87
2022/10/23 13:22:01;;;;;;;2.80;1.80;;;;;;;23.90;49.18;98515.16;5098190;28;38930;-85
2022/10/23 13:24:30;;;;;;;2.13;1.70;;;;;;;24.17;49.38;98524.44;5097823;28;40625;-85
2022/10/23 13:26:58;;;;;;;1.67;1.57;;;;;;;24.32;49.43;98519.84;5097773;28;41935;-86
2022/10/23 13:29:29;;;;;;;1.70;1.60;;;;;;;24.58;48.70;98524.72;5097816;28;40880;-87
2022/10/23 13:32:10;;;;;;;2.80;1.60;;;;;;;24.67;48.60;98504.59;5097571;28;39024;-86
2022/10/23 13:34:37;;;;;;;3.57;1.57;;;;;;;25.23;48.16;98529.03;5097654;28;41093;-86
2022/10/23 13:37:23;;;;;;;1.50;1.33;;;;;;;26.09;47.22;98533.13;5097322;28;41704;-85
2022/10/23 13:40:01;;;;;;;1.83;1.57;;;;;;;26.78;45.95;98529.38;5114610;28;42208;-85
2022/10/23 13:42:29;;;;;;;2.30;1.80;;;;;;;27.46;44.23;98544.47;5097536;28;38812;-87
2022/10/23 13:44:57;;;;;;;1.80;1.70;;;;;;;27.95;43.00;98553.16;5097422;28;40852;-86
2022/10/23 13:47:26;;;;;;;2.67;1.70;;;;;;;28.60;42.04;98550.19;5097404;28;42605;-85
2022/10/23 13:49:53;;;;;;;6.20;1.90;;;;;;;29.51;41.25;98549.75;5114432;28;41239;-86
2022/10/23 13:52:23;;;;;;;1.70;1.60;;;;;;;30.71;40.12;98564.56;5097519;28;40175;-86
2022/10/23 13:54:51;;;;;;;1.93;1.67;;;;;;;31.41;36.44;98583.06;5097373;28;40624;-85
2022/10/23 13:57:19;;;;;;;3.23;1.67;;;;;;;31.56;36.90;98568.91;5097344;28;42323;-85
2022/10/23 13:59:46;;;;;;;1.93;1.70;;;;;;;31.47;37.42;98554.75;5097331;28;42255;-86
2022/10/23 14:02:19;;;;;;;2.77;1.57;;;;;;;31.63;36.87;98586.91;5097431;28;38974;-86
2022/10/23 14:04:49;;;;;;;1.77;1.67;;;;;;;31.60;36.94;98576.41;5097154;28;42004;-86
2022/10/23 14:07:17;;;;;;;1.87;1.77;;;;;;;31.44;36.91;98574.38;5096988;28;41879;-86
2022/10/23 14:09:46;;;;;;;2.30;1.50;;;;;;;30.95;37.99;98562.72;5096860;28;42289;-86
2022/10/23 14:12:14;;;;;;;1.70;1.30;;;;;;;30.19;38.76;98551.56;5114351;27;39767;-85
2022/10/23 14:14:43;;;;;;;1.67;1.30;;;;;;;29.51;39.27;98538.00;5096420;28;41341;-85
2022/10/23 14:17:12;;;;;;;1.23;1.10;;;;;;;28.88;39.77;98522.56;5096756;28;42900;-85
2022/10/23 14:19:40;;;;;;;1.83;1.10;;;;;;;28.26;40.40;98517.06;5096982;28;42216;-84
2022/10/23 14:22:10;;;;;;;1.77;1.13;;;;;;;27.78;40.78;98531.03;5097070;28;38971;-83
2022/10/23 14:24:38;;;;;;;3.07;1.27;;;;;;;27.33;41.96;98549.91;5113753;28;40670;-86
2022/10/23 14:27:06;;;;;;;1.37;1.20;;;;;;;26.77;43.66;98523.13;5096667;28;41526;-85
2022/10/23 14:29:34;;;;;;;1.87;1.07;;;;;;;26.31;44.46;98516.75;5096573;28;40970;-82
2022/10/23 14:32:01;;;;;;;1.40;1.30;;;;;;;25.95;44.77;98523.28;5113526;28;38939;-84
2022/10/23 14:34:29;;;;;;;1.37;1.27;;;;;;;25.47;45.24;98491.69;5113490;28;40624;-84
2022/10/23 14:36:56;;;;;;;2.17;1.23;;;;;;;25.31;46.42;98509.94;5096149;28;41693;-84
2022/10/23 14:39:25;;;;;;;1.63;1.30;;;;;;;25.05;46.61;98497.03;5096586;28;41878;-85
2022/10/23 14:41:53;;;;;;;2.43;1.30;;;;;;;24.77;48.01;98479.03;5096533;28;39624;-84
2022/10/23 14:44:21;;;;;;;2.47;1.20;;;;;;;24.52;48.35;98470.47;5096493;28;41045;-83
2022/10/23 14:46:48;;;;;;;1.37;0.90;;;;;;;24.56;49.19;98486.16;5096053;28;41666;-83
2022/10/23 14:49:16;;;;;;;1.20;1.10;;;;;;;24.32;49.90;98454.91;5096004;28;42291;-82
2022/10/23 14:51:44;;;;;;;1.93;1.20;;;;;;;24.14;50.15;98440.09;5096048;28;40322;-84
2022/10/23 14:54:12;;;;;;;1.90;1.40;;;;;;;23.98;50.34;98443.91;5114709;28;40532;-85
2022/10/23 14:56:41;;;;;;;3.77;1.40;;;;;;;23.66;51.00;98426.22;5096763;28;43591;-82
2022/10/23 14:59:10;;;;;;;2.83;1.50;;;;;;;23.73;51.17;98459.63;5096429;28;41297;-84
2022/10/23 15:01:40;;;;;;;1.20;1.10;;;;;;;23.60;51.62;98454.03;5096382;28;40035;-83
2022/10/23 15:04:07;;;;;;;1.83;1.30;;;;;;;23.38;52.12;98422.50;5095935;28;41504;-83
2022/10/23 15:06:36;;;;;;;2.33;1.60;;;;;;;23.39;52.33;98435.00;5096366;28;41642;-84
2022/10/23 15:09:05;;;;;;;1.60;1.50;;;;;;;23.19;52.74;98413.97;5096338;28;42108;-86
2022/10/23 15:11:32;;;;;;;1.33;1.20;;;;;;;23.17;52.72;98425.97;5096199;28;39214;-83
2022/10/23 15:14:01;;;;;;;1.30;1.13;;;;;;;22.99;53.56;98423.66;5130062;27;41985;-85
2022/10/23 15:16:29;;;;;;;1.30;1.20;;;;;;;22.81;53.77;98409.66;5113206;28;43093;-86
2022/10/23 15:18:57;;;;;;;1.73;1.27;;;;;;;22.71;54.10;98403.66;5096161;28;40646;-86
2022/10/23 15:21:25;;;;;;;1.87;1.30;;;;;;;22.50;54.59;98385.47;5092052;28;39176;-86
2022/10/23 15:23:53;;;;;;;1.47;1.13;;;;;;;22.40;54.94;98374.06;5094831;28;41621;-86
2022/10/23 15:26:22;;;;;;;1.50;1.20;;;;;;;22.38;55.02;98397.69;5109747;27;43169;-85
2022/10/23 15:28:54;;;;;;;1.30;1.17;;;;;;;22.23;55.48;98411.16;5114683;27;41256;-86
2022/10/23 15:31:46;;;;;;;1.40;1.30;;;;;;;22.01;56.40;98401.19;5115083;27;38952;-86
2022/10/23 15:34:17;;;;;;;1.23;1.13;;;;;;;21.95;56.47;98415.38;5111742;27;42057;-86
2022/10/23 15:36:46;;;;;;;2.00;1.33;;;;;;;21.82;56.31;98403.31;5130902;27;42802;-86
2022/10/23 15:39:16;;;;;;;1.33;1.23;;;;;;;21.62;57.01;98385.94;5114583;27;41179;-86
2022/10/23 15:41:44;;;;;;;1.47;1.20;;;;;;;21.61;57.21;98395.03;5110004;27;40163;-87
2022/10/23 15:44:15;;;;;;;3.40;1.37;;;;;;;21.42;57.63;98381.97;5109658;27;40019;-86
2022/10/23 15:46:43;;;;;;;1.20;1.10;;;;;;;21.33;58.06;98388.41;5114153;27;42532;-86
2022/10/23 15:49:12;;;;;;;1.30;1.20;;;;;;;21.32;57.96;98405.59;5115056;27;40787;-86